WAT5643 KATL-KMSP
Flight info
| Callsign | WAT5643 |
|---|---|
| Flight time | 2h 31m |
| Altitude | 36000 |
| Route | PENCL2 EMAHH CEASE IOW MNOSO BLUEM5 |
| Aircraft | A21N/M-SDE3FGHIJ5RWY/LB1 |
Departure
| Time | 2026-05-04 14:26 |
|---|---|
| Airport | Hartsfield Jackson Atlanta International Airport (KATL) |
Arrival
| Time | 2026-05-04 16:57 |
|---|---|
| Airport | Minneapolis–Saint Paul International Airport / Wold–Chamberlain Field (KMSP) |
| Time | Latitude | Longitude | Altitude | Speed | Heading |
|---|---|---|---|---|---|
| 2026-05-04 14:00 | 33.63942 | -84.42626 | 1004 ft | 0 kts | 90° |
| 2026-05-04 14:13 | 33.63942 | -84.42627 | 1004 ft | 1 kts | 90° |
| 2026-05-04 14:13 | 33.63942 | -84.42643 | 1004 ft | 2 kts | 90° |
| 2026-05-04 14:13 | 33.63942 | -84.42660 | 1005 ft | 2 kts | 90° |
| 2026-05-04 14:14 | 33.63942 | -84.42675 | 1005 ft | 2 kts | 90° |
| 2026-05-04 14:14 | 33.63942 | -84.42705 | 1005 ft | 2 kts | 90° |
| 2026-05-04 14:14 | 33.63942 | -84.42715 | 1005 ft | 0 kts | 90° |
| 2026-05-04 14:15 | 33.63931 | -84.42735 | 1005 ft | 1 kts | 5° |
| 2026-05-04 14:15 | 33.63923 | -84.42734 | 1005 ft | 0 kts | 360° |
| 2026-05-04 14:18 | 33.63928 | -84.42734 | 1005 ft | 1 kts | 360° |
| 2026-05-04 14:18 | 33.63980 | -84.42733 | 1005 ft | 6 kts | 1° |
| 2026-05-04 14:19 | 33.64083 | -84.42732 | 1005 ft | 11 kts | 0° |
| 2026-05-04 14:19 | 33.64155 | -84.42732 | 1003 ft | 13 kts | 359° |
| 2026-05-04 14:19 | 33.64237 | -84.42733 | 1002 ft | 14 kts | 0° |
| 2026-05-04 14:19 | 33.64322 | -84.42733 | 1002 ft | 14 kts | 360° |
| 2026-05-04 14:20 | 33.64408 | -84.42732 | 1002 ft | 15 kts | 0° |
| 2026-05-04 14:20 | 33.64468 | -84.42676 | 999 ft | 16 kts | 88° |
| 2026-05-04 14:20 | 33.64469 | -84.42554 | 995 ft | 19 kts | 90° |
| 2026-05-04 14:21 | 33.64469 | -84.42317 | 985 ft | 18 kts | 90° |
| 2026-05-04 14:21 | 33.64503 | -84.42193 | 980 ft | 20 kts | 61° |
| 2026-05-04 14:21 | 33.64542 | -84.42058 | 975 ft | 22 kts | 89° |
| 2026-05-04 14:21 | 33.64542 | -84.41901 | 971 ft | 23 kts | 90° |
| 2026-05-04 14:22 | 33.64543 | -84.41740 | 970 ft | 22 kts | 90° |
| 2026-05-04 14:22 | 33.64542 | -84.41587 | 970 ft | 22 kts | 89° |
| 2026-05-04 14:22 | 33.64543 | -84.41438 | 972 ft | 20 kts | 90° |
| 2026-05-04 14:22 | 33.64542 | -84.41303 | 974 ft | 18 kts | 90° |
| 2026-05-04 14:23 | 33.64542 | -84.41056 | 977 ft | 16 kts | 90° |
| 2026-05-04 14:23 | 33.64543 | -84.40944 | 977 ft | 16 kts | 90° |
| 2026-05-04 14:23 | 33.64549 | -84.40826 | 976 ft | 16 kts | 74° |
| 2026-05-04 14:24 | 33.64570 | -84.40720 | 976 ft | 15 kts | 87° |
| 2026-05-04 14:24 | 33.64576 | -84.40605 | 975 ft | 16 kts | 76° |
| 2026-05-04 14:24 | 33.64653 | -84.40566 | 977 ft | 14 kts | 346° |
| 2026-05-04 14:24 | 33.64681 | -84.40642 | 979 ft | 12 kts | 269° |
| 2026-05-04 14:25 | 33.64679 | -84.40820 | 983 ft | 53 kts | 270° |
| 2026-05-04 14:25 | 33.64678 | -84.42351 | 987 ft | 162 kts | 270° |
| 2026-05-04 14:25 | 33.64674 | -84.43606 | 1263 ft | 182 kts | 270° |
| 2026-05-04 14:26 | 33.64671 | -84.44884 | 1875 ft | 182 kts | 270° |
| 2026-05-04 14:26 | 33.64685 | -84.46178 | 2635 ft | 179 kts | 277° |
| 2026-05-04 14:26 | 33.64981 | -84.47400 | 3184 ft | 184 kts | 294° |
| 2026-05-04 14:26 | 33.65467 | -84.48592 | 3580 ft | 197 kts | 297° |
| 2026-05-04 14:27 | 33.66018 | -84.49858 | 3979 ft | 211 kts | 297° |
| 2026-05-04 14:27 | 33.66596 | -84.51232 | 4316 ft | 230 kts | 296° |
| 2026-05-04 14:27 | 33.67202 | -84.52734 | 4717 ft | 247 kts | 296° |
| 2026-05-04 14:27 | 33.67937 | -84.54622 | 5282 ft | 262 kts | 295° |
| 2026-05-04 14:28 | 33.68675 | -84.56338 | 5958 ft | 268 kts | 306° |
| 2026-05-04 14:28 | 33.69815 | -84.57621 | 6647 ft | 271 kts | 329° |
| 2026-05-04 14:28 | 33.71256 | -84.58265 | 7316 ft | 274 kts | 351° |
| 2026-05-04 14:28 | 33.72876 | -84.58332 | 7997 ft | 278 kts | 1° |
| 2026-05-04 14:29 | 33.76118 | -84.58197 | 9255 ft | 287 kts | 2° |
| 2026-05-04 14:29 | 33.79439 | -84.58104 | 10519 ft | 293 kts | 1° |
| 2026-05-04 14:30 | 33.81139 | -84.58071 | 11173 ft | 296 kts | 0° |
| 2026-05-04 14:30 | 33.82828 | -84.58081 | 11708 ft | 301 kts | 357° |
| 2026-05-04 14:30 | 33.86465 | -84.58652 | 12314 ft | 329 kts | 346° |
| 2026-05-04 14:31 | 33.88293 | -84.59208 | 12760 ft | 336 kts | 344° |
| 2026-05-04 14:31 | 33.92017 | -84.60433 | 14048 ft | 338 kts | 343° |
| 2026-05-04 14:32 | 33.95820 | -84.61683 | 15327 ft | 340 kts | 343° |
| 2026-05-04 14:32 | 33.97696 | -84.62295 | 15940 ft | 341 kts | 342° |
| 2026-05-04 14:32 | 33.99617 | -84.62919 | 16570 ft | 341 kts | 342° |
| 2026-05-04 14:32 | 34.01508 | -84.63533 | 17172 ft | 342 kts | 342° |
| 2026-05-04 14:33 | 34.03436 | -84.64159 | 17761 ft | 343 kts | 342° |
| 2026-05-04 14:33 | 34.05381 | -84.64790 | 18332 ft | 344 kts | 342° |
| 2026-05-04 14:33 | 34.07311 | -84.65416 | 18868 ft | 346 kts | 341° |
| 2026-05-04 14:33 | 34.09249 | -84.66043 | 19390 ft | 349 kts | 341° |
| 2026-05-04 14:34 | 34.11196 | -84.66673 | 19895 ft | 351 kts | 341° |
| 2026-05-04 14:34 | 34.13134 | -84.67301 | 20409 ft | 353 kts | 341° |
| 2026-05-04 14:34 | 34.15098 | -84.67938 | 20903 ft | 355 kts | 341° |
| 2026-05-04 14:34 | 34.17072 | -84.68578 | 21375 ft | 358 kts | 341° |
| 2026-05-04 14:35 | 34.19064 | -84.69224 | 21864 ft | 360 kts | 340° |
| 2026-05-04 14:35 | 34.21101 | -84.69886 | 22342 ft | 362 kts | 340° |
| 2026-05-04 14:35 | 34.23085 | -84.70531 | 22782 ft | 364 kts | 340° |
| 2026-05-04 14:35 | 34.25097 | -84.71204 | 23211 ft | 366 kts | 339° |
| 2026-05-04 14:36 | 34.27083 | -84.71975 | 23624 ft | 367 kts | 336° |
| 2026-05-04 14:36 | 34.29094 | -84.72813 | 24046 ft | 369 kts | 336° |
| 2026-05-04 14:36 | 34.31084 | -84.73656 | 24448 ft | 372 kts | 336° |
| 2026-05-04 14:36 | 34.33105 | -84.74513 | 24844 ft | 374 kts | 335° |
| 2026-05-04 14:37 | 34.35099 | -84.75360 | 25225 ft | 376 kts | 335° |
| 2026-05-04 14:37 | 34.37139 | -84.76226 | 25598 ft | 378 kts | 335° |
| 2026-05-04 14:37 | 34.39166 | -84.77086 | 25945 ft | 380 kts | 335° |
| 2026-05-04 14:37 | 34.41227 | -84.77960 | 26292 ft | 383 kts | 335° |
| 2026-05-04 14:38 | 34.43279 | -84.78831 | 26635 ft | 385 kts | 335° |
| 2026-05-04 14:38 | 34.45358 | -84.79711 | 26971 ft | 387 kts | 335° |
| 2026-05-04 14:38 | 34.47446 | -84.80598 | 27292 ft | 389 kts | 335° |
| 2026-05-04 14:38 | 34.49513 | -84.81474 | 27610 ft | 390 kts | 335° |
| 2026-05-04 14:39 | 34.51629 | -84.82373 | 27923 ft | 392 kts | 335° |
| 2026-05-04 14:39 | 34.53722 | -84.83263 | 28214 ft | 394 kts | 335° |
| 2026-05-04 14:39 | 34.55885 | -84.84183 | 28518 ft | 396 kts | 335° |
| 2026-05-04 14:40 | 34.60138 | -84.85991 | 29113 ft | 399 kts | 335° |
| 2026-05-04 14:40 | 34.62277 | -84.86902 | 29393 ft | 401 kts | 335° |
| 2026-05-04 14:40 | 34.64473 | -84.87837 | 29660 ft | 403 kts | 335° |
| 2026-05-04 14:40 | 34.66604 | -84.88744 | 29920 ft | 404 kts | 335° |
| 2026-05-04 14:41 | 34.68794 | -84.89679 | 30185 ft | 406 kts | 335° |
| 2026-05-04 14:41 | 34.70946 | -84.90597 | 30443 ft | 408 kts | 335° |
| 2026-05-04 14:41 | 34.75333 | -84.92471 | 30972 ft | 410 kts | 335° |
| 2026-05-04 14:42 | 34.79797 | -84.94378 | 31439 ft | 414 kts | 335° |
| 2026-05-04 14:42 | 34.82041 | -84.95338 | 31704 ft | 414 kts | 335° |
| 2026-05-04 14:42 | 34.84225 | -84.96272 | 32027 ft | 413 kts | 335° |
| 2026-05-04 14:43 | 34.86446 | -84.97221 | 32364 ft | 412 kts | 335° |
| 2026-05-04 14:43 | 34.88658 | -84.98168 | 32681 ft | 411 kts | 335° |
| 2026-05-04 14:43 | 34.90842 | -84.99103 | 32980 ft | 410 kts | 335° |
| 2026-05-04 14:43 | 34.93055 | -85.00052 | 33279 ft | 409 kts | 335° |
| 2026-05-04 14:44 | 34.95247 | -85.00993 | 33551 ft | 408 kts | 335° |
| 2026-05-04 14:44 | 34.97410 | -85.01922 | 33811 ft | 407 kts | 335° |
| 2026-05-04 14:44 | 34.99628 | -85.02875 | 34073 ft | 407 kts | 335° |
| 2026-05-04 14:44 | 35.01767 | -85.03794 | 34311 ft | 406 kts | 335° |
| 2026-05-04 14:45 | 35.03954 | -85.04735 | 34525 ft | 406 kts | 335° |
| 2026-05-04 14:45 | 35.06109 | -85.05671 | 34690 ft | 405 kts | 334° |
| 2026-05-04 14:45 | 35.08269 | -85.06712 | 34839 ft | 404 kts | 332° |
| 2026-05-04 14:45 | 35.10335 | -85.07834 | 34983 ft | 403 kts | 329° |
| 2026-05-04 14:46 | 35.12423 | -85.09106 | 35125 ft | 402 kts | 327° |
| 2026-05-04 14:46 | 35.14409 | -85.10455 | 35258 ft | 401 kts | 324° |
| 2026-05-04 14:46 | 35.16362 | -85.11921 | 35392 ft | 400 kts | 322° |
| 2026-05-04 14:46 | 35.18275 | -85.13448 | 35530 ft | 400 kts | 322° |
| 2026-05-04 14:47 | 35.20174 | -85.14983 | 35662 ft | 400 kts | 322° |
| 2026-05-04 14:47 | 35.22080 | -85.16528 | 35793 ft | 400 kts | 322° |
| 2026-05-04 14:47 | 35.23944 | -85.18040 | 35918 ft | 400 kts | 322° |
| 2026-05-04 14:47 | 35.25863 | -85.19598 | 36043 ft | 401 kts | 322° |
| 2026-05-04 14:48 | 35.29643 | -85.22666 | 36095 ft | 402 kts | 322° |
| 2026-05-04 14:48 | 35.33500 | -85.25799 | 36104 ft | 402 kts | 322° |
| 2026-05-04 14:49 | 35.37339 | -85.28919 | 36101 ft | 401 kts | 322° |
| 2026-05-04 14:49 | 35.41153 | -85.32022 | 36095 ft | 401 kts | 322° |
| 2026-05-04 14:50 | 35.44946 | -85.35111 | 36095 ft | 401 kts | 322° |
| 2026-05-04 14:50 | 35.48776 | -85.38233 | 36096 ft | 401 kts | 322° |
| 2026-05-04 14:51 | 35.52630 | -85.41379 | 36093 ft | 401 kts | 322° |
| 2026-05-04 14:51 | 35.56451 | -85.44502 | 36092 ft | 400 kts | 321° |
| 2026-05-04 14:52 | 35.60239 | -85.47603 | 36087 ft | 401 kts | 322° |
| 2026-05-04 14:52 | 35.64072 | -85.50742 | 36082 ft | 401 kts | 321° |
| 2026-05-04 14:53 | 35.67916 | -85.53897 | 36077 ft | 401 kts | 321° |
| 2026-05-04 14:53 | 35.71698 | -85.57004 | 36076 ft | 401 kts | 322° |
| 2026-05-04 14:54 | 35.75521 | -85.60146 | 36073 ft | 401 kts | 321° |
| 2026-05-04 14:54 | 35.79355 | -85.63303 | 36073 ft | 400 kts | 322° |
| 2026-05-04 14:55 | 35.83183 | -85.66457 | 36078 ft | 400 kts | 321° |
| 2026-05-04 14:55 | 35.86961 | -85.69573 | 36074 ft | 399 kts | 321° |
| 2026-05-04 14:56 | 35.90791 | -85.72737 | 36069 ft | 400 kts | 321° |
| 2026-05-04 14:56 | 35.94595 | -85.75883 | 36071 ft | 400 kts | 321° |
| 2026-05-04 14:57 | 35.98363 | -85.79002 | 36068 ft | 399 kts | 321° |
| 2026-05-04 14:57 | 36.02164 | -85.82153 | 36067 ft | 399 kts | 321° |
| 2026-05-04 14:58 | 36.05941 | -85.85307 | 36057 ft | 399 kts | 320° |
| 2026-05-04 14:58 | 36.09596 | -85.88697 | 36052 ft | 397 kts | 318° |
| 2026-05-04 14:59 | 36.13178 | -85.92124 | 36045 ft | 398 kts | 317° |
| 2026-05-04 15:00 | 36.18613 | -85.97337 | 36042 ft | 398 kts | 317° |
| 2026-05-04 15:00 | 36.22203 | -86.00784 | 36037 ft | 398 kts | 317° |
| 2026-05-04 15:01 | 36.27591 | -86.05963 | 36038 ft | 398 kts | 317° |
| 2026-05-04 15:01 | 36.31167 | -86.09404 | 36038 ft | 397 kts | 317° |
| 2026-05-04 15:02 | 36.34775 | -86.12881 | 36033 ft | 397 kts | 317° |
| 2026-05-04 15:02 | 36.38364 | -86.16344 | 36032 ft | 397 kts | 318° |
| 2026-05-04 15:03 | 36.41911 | -86.19769 | 36035 ft | 397 kts | 317° |
| 2026-05-04 15:03 | 36.45497 | -86.23235 | 36034 ft | 397 kts | 317° |
| 2026-05-04 15:04 | 36.49095 | -86.26717 | 36034 ft | 398 kts | 317° |
| 2026-05-04 15:04 | 36.52638 | -86.30151 | 36031 ft | 398 kts | 317° |
| 2026-05-04 15:05 | 36.56235 | -86.33644 | 36027 ft | 397 kts | 317° |
| 2026-05-04 15:05 | 36.59795 | -86.37103 | 36026 ft | 397 kts | 317° |
| 2026-05-04 15:06 | 36.63356 | -86.40566 | 36020 ft | 398 kts | 317° |
| 2026-05-04 15:07 | 36.68724 | -86.45795 | 36016 ft | 397 kts | 317° |
| 2026-05-04 15:07 | 36.72267 | -86.49253 | 36015 ft | 397 kts | 317° |
| 2026-05-04 15:08 | 36.75856 | -86.52760 | 36012 ft | 397 kts | 317° |
| 2026-05-04 15:08 | 36.79402 | -86.56229 | 36007 ft | 397 kts | 317° |
| 2026-05-04 15:09 | 36.83024 | -86.59775 | 35995 ft | 397 kts | 317° |
| 2026-05-04 15:09 | 36.86973 | -86.63647 | 35984 ft | 397 kts | 317° |
| 2026-05-04 15:10 | 36.93393 | -86.69954 | 35983 ft | 397 kts | 317° |
| 2026-05-04 15:11 | 36.99849 | -86.76309 | 35990 ft | 396 kts | 317° |
| 2026-05-04 15:11 | 37.04055 | -86.80458 | 35983 ft | 395 kts | 317° |
| 2026-05-04 15:12 | 37.08379 | -86.84730 | 35975 ft | 395 kts | 317° |
| 2026-05-04 15:12 | 37.12284 | -86.88591 | 35969 ft | 395 kts | 317° |
| 2026-05-04 15:13 | 37.15842 | -86.92114 | 35963 ft | 395 kts | 317° |
| 2026-05-04 15:13 | 37.19444 | -86.95687 | 35959 ft | 395 kts | 317° |
| 2026-05-04 15:14 | 37.23193 | -86.99411 | 35957 ft | 395 kts | 317° |
| 2026-05-04 15:14 | 37.27472 | -87.03665 | 35957 ft | 395 kts | 317° |
| 2026-05-04 15:15 | 37.31097 | -87.07274 | 35957 ft | 395 kts | 317° |
| 2026-05-04 15:15 | 37.34690 | -87.10859 | 35955 ft | 395 kts | 317° |
| 2026-05-04 15:16 | 37.40041 | -87.16202 | 35945 ft | 394 kts | 317° |
| 2026-05-04 15:17 | 37.45414 | -87.21576 | 35946 ft | 394 kts | 317° |
| 2026-05-04 15:17 | 37.50818 | -87.26991 | 35941 ft | 394 kts | 317° |
| 2026-05-04 15:18 | 37.54404 | -87.30591 | 35940 ft | 394 kts | 317° |
| 2026-05-04 15:19 | 37.59793 | -87.36010 | 35942 ft | 394 kts | 317° |
| 2026-05-04 15:19 | 37.65093 | -87.41350 | 35943 ft | 394 kts | 317° |
| 2026-05-04 15:20 | 37.68620 | -87.44909 | 35938 ft | 393 kts | 317° |
| 2026-05-04 15:20 | 37.72125 | -87.48447 | 35937 ft | 393 kts | 317° |
| 2026-05-04 15:21 | 37.75676 | -87.52041 | 35934 ft | 392 kts | 317° |
| 2026-05-04 15:22 | 37.81805 | -87.58250 | 35934 ft | 392 kts | 317° |
| 2026-05-04 15:22 | 37.88147 | -87.64691 | 35928 ft | 392 kts | 317° |
| 2026-05-04 15:23 | 37.92294 | -87.68911 | 35922 ft | 392 kts | 317° |
| 2026-05-04 15:23 | 37.96503 | -87.73199 | 35911 ft | 391 kts | 317° |
| 2026-05-04 15:24 | 38.04843 | -87.81715 | 35892 ft | 391 kts | 316° |
| 2026-05-04 15:25 | 38.09040 | -87.86015 | 35887 ft | 392 kts | 317° |
| 2026-05-04 15:26 | 38.15400 | -87.92539 | 35875 ft | 394 kts | 317° |
| 2026-05-04 15:26 | 38.21703 | -87.99016 | 35867 ft | 395 kts | 317° |
| 2026-05-04 15:27 | 38.28077 | -88.05583 | 35864 ft | 396 kts | 317° |
| 2026-05-04 15:28 | 38.34389 | -88.12103 | 35859 ft | 398 kts | 317° |
| 2026-05-04 15:29 | 38.40785 | -88.18720 | 35862 ft | 399 kts | 317° |
| 2026-05-04 15:30 | 38.55740 | -88.34262 | 35862 ft | 400 kts | 318° |
| 2026-05-04 15:31 | 38.62115 | -88.40914 | 35861 ft | 402 kts | 318° |
| 2026-05-04 15:32 | 38.72816 | -88.52114 | 35852 ft | 403 kts | 318° |
| 2026-05-04 15:34 | 38.83666 | -88.63514 | 35838 ft | 405 kts | 319° |
| 2026-05-04 15:34 | 38.90200 | -88.70404 | 35829 ft | 406 kts | 318° |
| 2026-05-04 15:35 | 38.96695 | -88.77266 | 35819 ft | 407 kts | 318° |
| 2026-05-04 15:36 | 39.02450 | -88.83362 | 35824 ft | 408 kts | 318° |
| 2026-05-04 15:36 | 39.06112 | -88.87248 | 35819 ft | 408 kts | 318° |
| 2026-05-04 15:37 | 39.09838 | -88.91206 | 35820 ft | 409 kts | 318° |
| 2026-05-04 15:37 | 39.13526 | -88.95131 | 35820 ft | 410 kts | 318° |
| 2026-05-04 15:38 | 39.17216 | -88.99061 | 35818 ft | 410 kts | 318° |
| 2026-05-04 15:38 | 39.20946 | -89.03040 | 35817 ft | 409 kts | 318° |
| 2026-05-04 15:39 | 39.24680 | -89.07031 | 35815 ft | 410 kts | 318° |
| 2026-05-04 15:40 | 39.30238 | -89.12981 | 35811 ft | 410 kts | 318° |
| 2026-05-04 15:40 | 39.33903 | -89.16911 | 35806 ft | 409 kts | 318° |
| 2026-05-04 15:41 | 39.37623 | -89.20905 | 35804 ft | 410 kts | 318° |
| 2026-05-04 15:41 | 39.41358 | -89.24923 | 35801 ft | 410 kts | 318° |
| 2026-05-04 15:42 | 39.44997 | -89.28842 | 35803 ft | 410 kts | 318° |
| 2026-05-04 15:42 | 39.48599 | -89.32729 | 35798 ft | 410 kts | 318° |
| 2026-05-04 15:43 | 39.52226 | -89.36646 | 35794 ft | 410 kts | 318° |
| 2026-05-04 15:43 | 39.55854 | -89.40572 | 35793 ft | 410 kts | 318° |
| 2026-05-04 15:44 | 39.59485 | -89.44503 | 35795 ft | 410 kts | 318° |
| 2026-05-04 15:44 | 39.63139 | -89.48465 | 35792 ft | 410 kts | 318° |
| 2026-05-04 15:45 | 39.66797 | -89.52438 | 35788 ft | 411 kts | 318° |
| 2026-05-04 15:45 | 39.70453 | -89.56418 | 35778 ft | 411 kts | 318° |
| 2026-05-04 15:46 | 39.74108 | -89.60400 | 35775 ft | 411 kts | 318° |
| 2026-05-04 15:46 | 39.77795 | -89.64420 | 35772 ft | 411 kts | 318° |
| 2026-05-04 15:47 | 39.81383 | -89.68342 | 35770 ft | 411 kts | 317° |
| 2026-05-04 15:47 | 39.85025 | -89.72327 | 35768 ft | 413 kts | 317° |
| 2026-05-04 15:48 | 39.88700 | -89.76354 | 35766 ft | 413 kts | 317° |
| 2026-05-04 15:48 | 39.94279 | -89.82476 | 35770 ft | 413 kts | 318° |
| 2026-05-04 15:49 | 39.97982 | -89.86549 | 35773 ft | 413 kts | 318° |
| 2026-05-04 15:49 | 40.01722 | -89.90666 | 35774 ft | 414 kts | 317° |
| 2026-05-04 15:50 | 40.05468 | -89.94797 | 35773 ft | 413 kts | 318° |
| 2026-05-04 15:50 | 40.09204 | -89.98924 | 35769 ft | 414 kts | 318° |
| 2026-05-04 15:51 | 40.12936 | -90.03051 | 35769 ft | 415 kts | 318° |
| 2026-05-04 15:51 | 40.16719 | -90.07242 | 35760 ft | 415 kts | 317° |
| 2026-05-04 15:52 | 40.20449 | -90.11379 | 35746 ft | 414 kts | 317° |
| 2026-05-04 15:52 | 40.24222 | -90.15573 | 35748 ft | 415 kts | 317° |
| 2026-05-04 15:53 | 40.27986 | -90.19763 | 35742 ft | 414 kts | 317° |
| 2026-05-04 15:53 | 40.31764 | -90.23973 | 35737 ft | 414 kts | 317° |
| 2026-05-04 15:54 | 40.35561 | -90.28213 | 35736 ft | 414 kts | 317° |
| 2026-05-04 15:54 | 40.39333 | -90.32430 | 35738 ft | 414 kts | 317° |
| 2026-05-04 15:55 | 40.43122 | -90.36674 | 35730 ft | 414 kts | 317° |
| 2026-05-04 15:55 | 40.46870 | -90.40875 | 35734 ft | 414 kts | 318° |
| 2026-05-04 15:56 | 40.50598 | -90.45061 | 35739 ft | 414 kts | 317° |
| 2026-05-04 15:56 | 40.54395 | -90.49332 | 35735 ft | 414 kts | 317° |
| 2026-05-04 15:57 | 40.58598 | -90.54067 | 35736 ft | 414 kts | 317° |
| 2026-05-04 15:57 | 40.62535 | -90.58511 | 35735 ft | 415 kts | 317° |
| 2026-05-04 15:58 | 40.66265 | -90.62727 | 35732 ft | 415 kts | 317° |
| 2026-05-04 15:58 | 40.69973 | -90.66925 | 35732 ft | 415 kts | 317° |
| 2026-05-04 15:59 | 40.73690 | -90.71139 | 35725 ft | 415 kts | 317° |
| 2026-05-04 15:59 | 40.77674 | -90.75663 | 35718 ft | 416 kts | 317° |
| 2026-05-04 16:00 | 40.82024 | -90.80611 | 35722 ft | 416 kts | 317° |
| 2026-05-04 16:00 | 40.86402 | -90.85602 | 35719 ft | 416 kts | 317° |
| 2026-05-04 16:01 | 40.90832 | -90.90658 | 35712 ft | 416 kts | 317° |
| 2026-05-04 16:01 | 40.95263 | -90.95727 | 35709 ft | 416 kts | 317° |
| 2026-05-04 16:02 | 40.99663 | -91.00768 | 35705 ft | 416 kts | 317° |
| 2026-05-04 16:03 | 41.06250 | -91.08332 | 35695 ft | 416 kts | 317° |
| 2026-05-04 16:03 | 41.10622 | -91.13365 | 35689 ft | 417 kts | 317° |
| 2026-05-04 16:04 | 41.15032 | -91.18449 | 35693 ft | 416 kts | 316° |
| 2026-05-04 16:04 | 41.21591 | -91.26032 | 35697 ft | 416 kts | 316° |
| 2026-05-04 16:05 | 41.25942 | -91.31074 | 35683 ft | 415 kts | 316° |
| 2026-05-04 16:06 | 41.32442 | -91.38621 | 35689 ft | 416 kts | 316° |
| 2026-05-04 16:07 | 41.40419 | -91.47909 | 35690 ft | 416 kts | 316° |
| 2026-05-04 16:08 | 41.47885 | -91.56631 | 35685 ft | 415 kts | 316° |
| 2026-05-04 16:09 | 41.57363 | -91.67236 | 35697 ft | 416 kts | 318° |
| 2026-05-04 16:10 | 41.65047 | -91.75508 | 35680 ft | 416 kts | 318° |
| 2026-05-04 16:11 | 41.72730 | -91.83819 | 35686 ft | 416 kts | 318° |
| 2026-05-04 16:12 | 41.84218 | -91.96294 | 35687 ft | 416 kts | 317° |
| 2026-05-04 16:13 | 41.91888 | -92.04659 | 35688 ft | 415 kts | 317° |
| 2026-05-04 16:14 | 41.99548 | -92.13039 | 35675 ft | 415 kts | 317° |
| 2026-05-04 16:16 | 42.09081 | -92.23505 | 35664 ft | 415 kts | 317° |
| 2026-05-04 16:17 | 42.18586 | -92.33981 | 35658 ft | 414 kts | 317° |
| 2026-05-04 16:18 | 42.26153 | -92.42351 | 35652 ft | 415 kts | 317° |
| 2026-05-04 16:19 | 42.31791 | -92.48605 | 35467 ft | 415 kts | 317° |
| 2026-05-04 16:19 | 42.35819 | -92.52850 | 35046 ft | 416 kts | 321° |
| 2026-05-04 16:20 | 42.42767 | -92.58643 | 34339 ft | 422 kts | 328° |
| 2026-05-04 16:20 | 42.47935 | -92.62048 | 33813 ft | 423 kts | 330° |
| 2026-05-04 16:21 | 42.55241 | -92.66734 | 33076 ft | 424 kts | 330° |
| 2026-05-04 16:22 | 42.60505 | -92.70125 | 32546 ft | 424 kts | 330° |
| 2026-05-04 16:22 | 42.68514 | -92.75299 | 31740 ft | 421 kts | 329° |
| 2026-05-04 16:23 | 42.76345 | -92.80376 | 30925 ft | 413 kts | 329° |
| 2026-05-04 16:24 | 42.84724 | -92.85883 | 30042 ft | 407 kts | 328° |
| 2026-05-04 16:25 | 42.88914 | -92.88650 | 29601 ft | 404 kts | 328° |
| 2026-05-04 16:26 | 42.97219 | -92.94142 | 28720 ft | 398 kts | 328° |
| 2026-05-04 16:26 | 43.03407 | -92.98244 | 28059 ft | 392 kts | 328° |
| 2026-05-04 16:27 | 43.07502 | -93.00961 | 27618 ft | 389 kts | 328° |
| 2026-05-04 16:28 | 43.13559 | -93.04993 | 26958 ft | 384 kts | 328° |
| 2026-05-04 16:28 | 43.19593 | -93.09013 | 26295 ft | 380 kts | 328° |
| 2026-05-04 16:29 | 43.27545 | -93.14329 | 25409 ft | 374 kts | 328° |
| 2026-05-04 16:30 | 43.33387 | -93.18244 | 24742 ft | 370 kts | 328° |
| 2026-05-04 16:31 | 43.37252 | -93.20835 | 24292 ft | 368 kts | 328° |
| 2026-05-04 16:31 | 43.43019 | -93.24712 | 23652 ft | 362 kts | 327° |
| 2026-05-04 16:32 | 43.49729 | -93.28545 | 23636 ft | 375 kts | 341° |
| 2026-05-04 16:33 | 43.55034 | -93.28825 | 23164 ft | 385 kts | 356° |
| 2026-05-04 16:33 | 43.60381 | -93.28278 | 22585 ft | 382 kts | 356° |
| 2026-05-04 16:34 | 43.64964 | -93.27806 | 21862 ft | 378 kts | 356° |
| 2026-05-04 16:34 | 43.67123 | -93.27589 | 21501 ft | 376 kts | 356° |
| 2026-05-04 16:35 | 43.73617 | -93.26950 | 20384 ft | 369 kts | 356° |
| 2026-05-04 16:35 | 43.79980 | -93.26330 | 19281 ft | 363 kts | 356° |
| 2026-05-04 16:36 | 43.82098 | -93.26122 | 18912 ft | 361 kts | 356° |
| 2026-05-04 16:36 | 43.86285 | -93.25713 | 18166 ft | 358 kts | 356° |
| 2026-05-04 16:37 | 43.90398 | -93.25313 | 17420 ft | 355 kts | 356° |
| 2026-05-04 16:37 | 43.92471 | -93.25111 | 17050 ft | 353 kts | 356° |
| 2026-05-04 16:37 | 43.96495 | -93.24715 | 16341 ft | 350 kts | 356° |
| 2026-05-04 16:38 | 44.00544 | -93.24294 | 15620 ft | 347 kts | 356° |
| 2026-05-04 16:39 | 44.06517 | -93.23650 | 14529 ft | 342 kts | 356° |
| 2026-05-04 16:39 | 44.10479 | -93.23223 | 13803 ft | 339 kts | 356° |
| 2026-05-04 16:40 | 44.14361 | -93.22804 | 13090 ft | 337 kts | 356° |
| 2026-05-04 16:40 | 44.18253 | -93.22387 | 12372 ft | 334 kts | 356° |
| 2026-05-04 16:41 | 44.22065 | -93.22029 | 11660 ft | 332 kts | 355° |
| 2026-05-04 16:41 | 44.27822 | -93.21512 | 10587 ft | 328 kts | 355° |
| 2026-05-04 16:42 | 44.33436 | -93.21052 | 9797 ft | 313 kts | 354° |
| 2026-05-04 16:43 | 44.36974 | -93.20710 | 9595 ft | 295 kts | 358° |
| 2026-05-04 16:43 | 44.40309 | -93.19867 | 9086 ft | 293 kts | 4° |
| 2026-05-04 16:43 | 44.41959 | -93.19317 | 8780 ft | 294 kts | 8° |
| 2026-05-04 16:44 | 44.47952 | -93.14239 | 8519 ft | 304 kts | 29° |
| 2026-05-04 16:45 | 44.51075 | -93.11045 | 8127 ft | 306 kts | 28° |
| 2026-05-04 16:46 | 44.55352 | -93.06741 | 7235 ft | 299 kts | 29° |
| 2026-05-04 16:46 | 44.58130 | -93.03951 | 7009 ft | 280 kts | 29° |
| 2026-05-04 16:47 | 44.60724 | -93.01339 | 7005 ft | 263 kts | 28° |
| 2026-05-04 16:47 | 44.63113 | -92.98894 | 6996 ft | 243 kts | 29° |
| 2026-05-04 16:48 | 44.66400 | -92.95258 | 6538 ft | 242 kts | 30° |
| 2026-05-04 16:48 | 44.67491 | -92.94041 | 6332 ft | 239 kts | 31° |
| 2026-05-04 16:49 | 44.69760 | -92.92101 | 6018 ft | 207 kts | 359° |
| 2026-05-04 16:49 | 44.71824 | -92.92960 | 5724 ft | 174 kts | 319° |
| 2026-05-04 16:50 | 44.73525 | -92.94824 | 5004 ft | 178 kts | 319° |
| 2026-05-04 16:50 | 44.75232 | -92.96674 | 4446 ft | 175 kts | 319° |
| 2026-05-04 16:51 | 44.76974 | -92.98534 | 4048 ft | 176 kts | 320° |
| 2026-05-04 16:51 | 44.77796 | -92.99445 | 4016 ft | 175 kts | 316° |
| 2026-05-04 16:51 | 44.79148 | -93.01552 | 3824 ft | 158 kts | 306° |
| 2026-05-04 16:52 | 44.80261 | -93.03796 | 3432 ft | 153 kts | 303° |
| 2026-05-04 16:52 | 44.80751 | -93.04872 | 3261 ft | 152 kts | 302° |
| 2026-05-04 16:53 | 44.81763 | -93.07179 | 2902 ft | 151 kts | 301° |
| 2026-05-04 16:53 | 44.83248 | -93.10619 | 2349 ft | 141 kts | 300° |
| 2026-05-04 16:54 | 44.83688 | -93.11638 | 2160 ft | 132 kts | 300° |
| 2026-05-04 16:55 | 44.85383 | -93.15559 | 1580 ft | 130 kts | 298° |
| 2026-05-04 16:55 | 44.86172 | -93.17383 | 1286 ft | 129 kts | 299° |
| 2026-05-04 16:56 | 44.87024 | -93.19353 | 960 ft | 127 kts | 299° |
| 2026-05-04 16:56 | 44.88001 | -93.21613 | 826 ft | 62 kts | 300° |
| 2026-05-04 16:57 | 44.88131 | -93.21923 | 828 ft | 28 kts | 301° |
| 2026-05-04 16:57 | 44.88295 | -93.21950 | 829 ft | 12 kts | 35° |
| 2026-05-04 16:58 | 44.88356 | -93.21777 | 828 ft | 4 kts | 86° |
| 2026-05-04 16:58 | 44.88358 | -93.21740 | 828 ft | 4 kts | 86° |
| 2026-05-04 16:59 | 44.88359 | -93.21695 | 827 ft | 1 kts | 87° |
| 2026-05-04 17:00 | 44.88360 | -93.21694 | 827 ft | 0 kts | 87° |